San Diego, California
Traffic Map
Current Weather Conditions
San Diego, California
Scattered Clouds
Scattered Clouds
80°
Feels Like: 82°
Wind Chill: 80° Ceiling: Unl
Heat Index: 82° Visibility: 10mi
Dew Point: 66° Wind: 8mph
Humidity: 62% Direction: 220° (SW)
Pressure: 29.92in Gusts: 0mph
Raw Report DataKSAN 301951Z 22007KT 10SM FEW007 SCT220 27/19 A2992 RMK AO2 SLP131 T02670189 $
Traffic Incident Summary
Active as of:
Severity:
Category:
InformationThere was an issue retrieving the traffic information for this location. Please try a different location or try again shortly.
Advertisements
Track Severe Weather on mobile